Time;durP1;ratioP1;P1;durP2;ratioP2;P2;SDS_P1;SDS_P2;PMS_P1;PMS_P2;Temp;Humidity;BMP_temperature;BMP_pressure;BME280_temperature;BME280_humidity;BME280_pressure;Samples;Min_cycle;Max_cycle;Signal;HPM_P1;HPM_P2
2021/04/15 00:01:39;;;;;;;4.82;3.15;;;;;;;10.03;48.85;101409.91;4958763;28;20046;-82
2021/04/15 00:04:24;;;;;;;5.20;3.92;;;;;;;9.94;48.90;101398.09;4943773;29;20042;-82
2021/04/15 00:07:09;;;;;;;6.20;3.80;;;;;;;9.92;48.64;101400.28;4949953;28;20054;-82
2021/04/15 00:09:54;;;;;;;5.22;3.97;;;;;;;9.91;49.19;101389.69;4943568;28;20514;-82
2021/04/15 00:12:41;;;;;;;4.78;3.13;;;;;;;9.96;49.30;101382.28;4957628;28;20058;-82
2021/04/15 00:15:28;;;;;;;5.63;4.13;;;;;;;9.95;48.90;101382.59;4956908;28;20059;-81
2021/04/15 00:17:58;;;;;;;7.97;4.18;;;;;;;9.96;49.00;101382.28;5002313;23;20050;-80
2021/04/15 00:20:43;;;;;;;8.43;4.38;;;;;;;9.87;49.28;101375.91;4991644;28;20053;-81
2021/04/15 00:23:27;;;;;;;7.78;3.75;;;;;;;9.78;49.24;101359.47;4995510;28;20517;-79
2021/04/15 00:26:14;;;;;;;5.72;3.17;;;;;;;9.82;49.95;101365.09;4987465;28;20046;-81
2021/04/15 00:29:00;;;;;;;6.65;4.20;;;;;;;9.89;49.48;101362.84;4976915;28;20057;-80
2021/04/15 00:31:44;;;;;;;7.93;4.57;;;;;;;9.94;48.74;101373.63;4974911;28;20038;-81
2021/04/15 00:34:29;;;;;;;;;;;;;;;9.89;49.77;101371.00;4972911;28;20054;-80
2021/04/15 00:37:15;;;;;;;6.10;4.65;;;;;;;9.65;49.99;101360.19;4963991;28;19918;-81
2021/04/15 00:39:59;;;;;;;6.78;5.15;;;;;;;9.54;51.41;101371.50;4976443;28;20053;-81
2021/04/15 00:42:44;;;;;;;5.75;4.20;;;;;;;9.37;52.23;101361.94;4972686;28;20050;-79
2021/04/15 00:45:34;;;;;;;14.15;5.28;;;;;;;9.38;52.37;101360.03;4973676;28;20054;-81
2021/04/15 00:48:33;;;;;;;10.18;5.35;;;;;;;9.39;52.58;101359.75;4956305;29;20053;-81
2021/04/15 00:51:21;;;;;;;10.70;4.85;;;;;;;9.24;52.93;101359.94;4977333;28;20553;-79
2021/04/15 00:54:23;;;;;;;7.15;4.97;;;;;;;9.30;53.14;101358.75;4962769;28;20501;-79
2021/04/15 00:57:38;;;;;;;9.18;4.90;;;;;;;9.19;54.03;101357.28;4973919;28;20518;-78
2021/04/15 01:00:27;;;;;;;4.47;3.80;;;;;;;9.14;53.17;101349.22;4974817;28;20111;-79
2021/04/15 01:03:12;;;;;;;8.57;4.88;;;;;;;9.07;53.55;101353.34;4970532;28;20045;-80
2021/04/15 01:05:58;;;;;;;3.72;3.15;;;;;;;9.14;53.09;101346.50;4974033;28;20426;-80
2021/04/15 01:08:43;;;;;;;9.88;4.38;;;;;;;9.12;52.79;101342.44;4976272;28;20038;-79
2021/04/15 01:11:54;;;;;;;7.55;4.32;;;;;;;9.18;52.97;101350.22;4963351;28;20054;-79
2021/04/15 01:14:53;;;;;;;6.82;4.25;;;;;;;9.17;53.04;101347.81;4981576;28;20407;-79
2021/04/15 01:17:43;;;;;;;8.95;4.97;;;;;;;9.13;52.88;101344.06;4971554;28;20066;-79
2021/04/15 01:20:31;;;;;;;6.22;4.00;;;;;;;9.21;52.50;101346.94;4970931;28;20411;-79
2021/04/15 01:23:33;;;;;;;7.65;4.00;;;;;;;9.31;51.64;101349.50;4977432;28;20053;-78
2021/04/15 01:26:33;;;;;;;8.50;3.88;;;;;;;9.32;51.93;101334.84;4978659;28;20423;-81
2021/04/15 01:29:22;;;;;;;5.47;3.92;;;;;;;9.42;51.40;101336.63;4980600;28;20045;-82
2021/04/15 01:32:20;;;;;;;5.82;4.10;;;;;;;9.35;51.78;101336.97;4980778;28;20054;-82
2021/04/15 01:35:31;;;;;;;7.45;4.32;;;;;;;9.35;51.79;101338.88;4977253;28;20049;-82
2021/04/15 01:38:21;;;;;;;7.25;3.90;;;;;;;9.29;51.80;101338.16;4977697;28;20054;-82
2021/04/15 01:41:18;;;;;;;7.95;4.95;;;;;;;9.29;51.70;101340.88;4959635;28;20116;-80
2021/04/15 01:44:26;;;;;;;7.53;4.03;;;;;;;9.28;51.20;101333.00;4965814;28;20415;-79
2021/04/15 01:47:17;;;;;;;5.50;3.70;;;;;;;9.24;50.35;101335.50;4978453;28;20054;-81
2021/04/15 01:50:37;;;;;;;5.22;3.70;;;;;;;9.17;50.46;101336.94;4980893;28;20415;-81
2021/04/15 01:53:30;;;;;;;8.07;3.47;;;;;;;9.28;50.18;101339.25;4966374;28;20071;-80
2021/04/15 01:56:29;;;;;;;3.55;2.97;;;;;;;9.23;50.18;101335.78;4970428;28;20057;-81
2021/04/15 01:59:26;;;;;;;7.28;4.15;;;;;;;9.13;50.54;101335.91;4978219;28;20049;-80
2021/04/15 02:02:23;;;;;;;5.60;3.60;;;;;;;9.14;50.47;101351.09;4958430;28;20511;-81
2021/04/15 02:05:15;;;;;;;5.35;3.83;;;;;;;9.17;50.64;101348.63;4974212;28;20054;-82
2021/04/15 02:08:08;;;;;;;;;;;;;;;9.27;49.97;101362.06;4964834;28;20514;-80
2021/04/15 02:11:19;;;;;;;7.72;3.95;;;;;;;9.21;51.07;101365.91;4975544;28;19922;-81
2021/04/15 02:14:04;;;;;;;6.50;3.90;;;;;;;9.06;50.89;101363.38;4967967;28;20518;-79
2021/04/15 02:16:53;;;;;;;6.97;3.17;;;;;;;8.91;51.08;101366.28;4965661;28;20065;-79
2021/04/15 02:19:49;;;;;;;11.65;4.45;;;;;;;9.06;51.06;101363.38;4980415;28;20054;-79
2021/04/15 02:22:42;;;;;;;5.70;4.00;;;;;;;8.98;50.90;101356.72;4974724;28;20050;-79
2021/04/15 02:25:29;;;;;;;14.35;4.28;;;;;;;9.01;51.26;101360.75;4979581;28;20050;-79
2021/04/15 02:28:30;;;;;;;6.05;4.20;;;;;;;9.00;51.68;101362.63;4984874;28;20522;-79
2021/04/15 02:31:36;;;;;;;7.40;4.35;;;;;;;9.01;51.56;101360.75;4977966;28;20570;-79
2021/04/15 02:34:29;;;;;;;6.25;3.15;;;;;;;8.87;51.25;101362.53;4959555;28;20054;-80
2021/04/15 02:37:19;;;;;;;6.70;4.25;;;;;;;8.78;51.80;101364.25;4975213;28;20042;-79
2021/04/15 02:40:13;;;;;;;7.75;4.32;;;;;;;8.60;51.92;101363.06;4978320;28;20041;-81
2021/04/15 02:43:06;;;;;;;7.65;4.68;;;;;;;8.56;52.11;101360.13;4970811;28;20061;-80
2021/04/15 02:45:54;;;;;;;9.75;3.80;;;;;;;8.58;51.92;101352.50;4974004;28;20050;-81
2021/04/15 02:48:42;;;;;;;7.60;4.63;;;;;;;8.58;52.22;101357.13;4979954;28;20049;-79
2021/04/15 02:51:48;;;;;;;7.20;3.60;;;;;;;8.54;53.05;101354.16;4978055;28;20046;-81
2021/04/15 02:54:44;;;;;;;11.90;4.07;;;;;;;8.62;52.75;101355.47;4976815;28;20411;-80
2021/04/15 02:57:38;;;;;;;7.53;4.78;;;;;;;8.49;53.57;101356.94;4963886;28;20573;-81
2021/04/15 03:00:32;;;;;;;6.38;4.30;;;;;;;8.49;53.78;101359.63;4975933;28;20046;-80
2021/04/15 03:03:19;;;;;;;8.18;3.85;;;;;;;8.55;53.01;101355.78;4978885;28;20418;-80
2021/04/15 03:06:10;;;;;;;7.00;4.22;;;;;;;8.64;52.33;101355.97;4977573;28;20415;-80
2021/04/15 03:09:00;;;;;;;6.40;4.50;;;;;;;8.60;51.98;101360.34;4973957;28;20053;-81
2021/04/15 03:11:50;;;;;;;10.68;4.30;;;;;;;8.42;52.66;101350.25;4975796;28;20054;-80
2021/04/15 03:14:45;;;;;;;6.22;3.65;;;;;;;8.52;52.91;101344.72;4969930;28;20427;-81
2021/04/15 03:17:34;;;;;;;5.47;3.33;;;;;;;8.40;52.97;101345.09;4974529;28;20063;-78
2021/04/15 03:20:28;;;;;;;14.27;4.72;;;;;;;8.40;52.54;101336.97;4971726;28;20336;-79
2021/04/15 03:23:34;;;;;;;8.27;4.50;;;;;;;8.53;53.14;101341.72;4969203;28;20116;-79
2021/04/15 03:26:51;;;;;;;8.10;4.07;;;;;;;8.59;51.50;101340.56;4967653;28;20057;-79
2021/04/15 03:29:42;;;;;;;13.50;4.88;;;;;;;8.53;52.25;101344.41;4972948;28;20049;-80
2021/04/15 03:32:37;;;;;;;9.38;4.90;;;;;;;8.45;52.62;101336.91;4976859;28;20049;-79
2021/04/15 03:35:36;;;;;;;8.68;3.63;;;;;;;8.53;51.77;101343.63;4972885;28;20053;-79
2021/04/15 03:38:29;;;;;;;10.52;4.32;;;;;;;8.47;52.37;101342.88;4971625;28;20049;-80
2021/04/15 03:41:45;;;;;;;11.93;4.57;;;;;;;8.40;52.46;101338.88;4985053;28;20050;-80
2021/04/15 03:44:46;;;;;;;4.72;3.33;;;;;;;8.39;52.68;101338.06;4971233;28;20503;-78
2021/04/15 03:47:36;;;;;;;6.18;4.05;;;;;;;8.50;52.65;101344.19;4971299;28;20415;-80
2021/04/15 03:50:26;;;;;;;9.48;4.32;;;;;;;8.54;52.87;101339.81;4972519;28;20046;-79
2021/04/15 03:53:13;;;;;;;7.25;4.35;;;;;;;8.57;52.72;101345.50;4977629;28;20050;-79
2021/04/15 03:56:02;;;;;;;8.50;4.85;;;;;;;8.45;52.81;101345.03;4973810;28;20123;-79
2021/04/15 03:58:53;;;;;;;8.07;4.13;;;;;;;8.45;53.87;101355.88;4960287;28;20058;-81
2021/04/15 04:01:43;;;;;;;11.52;4.40;;;;;;;8.37;53.35;101348.38;4976587;28;20054;-80
2021/04/15 04:04:41;;;;;;;10.18;4.00;;;;;;;8.38;53.96;101357.31;4974007;28;20519;-80
2021/04/15 04:07:41;;;;;;;8.68;4.53;;;;;;;8.32;54.19;101353.84;4972743;28;20065;-81
2021/04/15 04:10:37;;;;;;;9.18;4.35;;;;;;;8.18;54.30;101348.22;4972622;28;20813;-80
2021/04/15 04:13:54;;;;;;;8.95;4.68;;;;;;;8.28;53.56;101351.97;4973880;28;20050;-82
2021/04/15 04:16:52;;;;;;;11.10;4.32;;;;;;;8.35;54.17;101352.47;4969823;28;20045;-79
2021/04/15 04:19:43;;;;;;;10.57;4.78;;;;;;;8.24;54.05;101353.59;4957644;28;20063;-81
2021/04/15 04:22:37;;;;;;;6.88;4.43;;;;;;;8.25;54.44;101358.75;4970884;28;20042;-81
2021/04/15 04:25:30;;;;;;;9.27;4.72;;;;;;;8.10;54.73;101359.69;4975445;28;20053;-80
2021/04/15 04:28:22;;;;;;;6.82;4.20;;;;;;;8.09;55.52;101354.53;4973185;28;20057;-79
2021/04/15 04:31:24;;;;;;;7.32;4.57;;;;;;;8.01;54.41;101352.44;4973980;28;20507;-80
2021/04/15 04:34:13;;;;;;;6.95;4.75;;;;;;;8.02;54.83;101359.47;4992978;28;20049;-80
2021/04/15 04:37:00;;;;;;;10.73;6.30;;;;;;;8.04;55.53;101362.69;4981535;28;20073;-81
2021/04/15 04:39:46;;;;;;;14.82;7.70;;;;;;;8.01;55.14;101365.97;4975442;28;20046;-80
2021/04/15 04:42:41;;;;;;;19.42;12.27;;;;;;;7.91;55.24;101364.16;4970140;28;20513;-79
2021/04/15 04:45:27;;;;;;;72.05;27.63;;;;;;;7.97;55.05;101359.53;4973566;28;20042;-80
2021/04/15 04:48:24;;;;;;;68.03;26.35;;;;;;;8.01;55.03;101363.28;4970027;28;20077;-79
2021/04/15 04:51:12;;;;;;;43.60;17.58;;;;;;;7.96;55.25;101371.44;4970275;28;20038;-79
2021/04/15 04:54:04;;;;;;;43.95;19.02;;;;;;;7.92;55.37;101376.63;4976068;28;20122;-79
2021/04/15 04:57:33;;;;;;;20.05;10.75;;;;;;;7.89;54.98;101373.63;4972598;28;20054;-79
2021/04/15 05:00:21;;;;;;;21.27;7.43;;;;;;;7.94;55.06;101377.13;4967464;28;20423;-79
2021/04/15 05:03:06;;;;;;;16.30;6.32;;;;;;;7.80;55.66;101388.88;4971007;28;20054;-79
2021/04/15 05:06:08;;;;;;;18.00;5.55;;;;;;;7.85;55.66;101386.13;4979327;28;20054;-79
2021/04/15 05:09:24;;;;;;;11.38;5.05;;;;;;;7.88;55.94;101389.06;4971826;28;20042;-79
2021/04/15 05:12:15;;;;;;;12.50;5.05;;;;;;;7.90;55.95;101394.22;4973396;28;20115;-79
2021/04/15 05:15:01;;;;;;;11.27;5.63;;;;;;;8.02;55.56;101391.97;4977003;28;20426;-78
2021/04/15 05:17:46;;;;;;;11.55;4.68;;;;;;;8.11;55.33;101395.69;4970054;28;20057;-78
2021/04/15 05:20:31;;;;;;;13.55;5.10;;;;;;;8.11;54.96;101401.13;4976496;28;20050;-77
2021/04/15 05:23:24;;;;;;;14.25;4.13;;;;;;;8.18;54.31;101407.00;4974779;28;20058;-79
2021/04/15 05:26:20;;;;;;;15.88;6.15;;;;;;;8.27;53.69;101405.34;4972395;28;20046;-78
2021/04/15 05:29:07;;;;;;;13.07;6.93;;;;;;;8.45;52.78;101404.66;4974882;28;20078;-79
2021/04/15 05:31:54;;;;;;;10.50;5.93;;;;;;;8.51;53.10;101406.25;4975490;28;20050;-79
2021/04/15 05:34:45;;;;;;;9.15;5.97;;;;;;;8.63;53.44;101405.06;4970014;28;20065;-80
2021/04/15 05:37:30;;;;;;;11.43;6.13;;;;;;;8.75;52.92;101408.19;4970817;28;20049;-77
2021/04/15 05:40:16;;;;;;;31.73;6.55;;;;;;;8.86;53.33;101405.09;4963822;28;20112;-75
2021/04/15 05:43:06;;;;;;;6.88;4.55;;;;;;;9.00;52.34;101403.31;4967693;28;20050;-77
2021/04/15 05:46:10;;;;;;;14.27;5.65;;;;;;;9.09;51.66;101397.28;4960572;28;20073;-77
2021/04/15 05:48:59;;;;;;;13.93;5.57;;;;;;;9.06;51.78;101406.00;4954244;29;20050;-77
2021/04/15 05:51:52;;;;;;;8.75;4.70;;;;;;;9.13;51.96;101392.91;4959752;28;20046;-77
2021/04/15 05:54:39;;;;;;;19.25;6.35;;;;;;;9.26;51.48;101409.28;4959601;28;20058;-75
2021/04/15 05:57:30;;;;;;;8.23;4.68;;;;;;;9.31;50.63;101397.56;4957837;28;20054;-75
2021/04/15 06:00:24;;;;;;;10.68;4.57;;;;;;;9.38;50.26;101393.41;4961158;28;20054;-75
2021/04/15 06:03:34;;;;;;;6.10;3.80;;;;;;;9.55;50.72;101405.69;4957630;28;20511;-75
2021/04/15 06:06:26;;;;;;;7.47;4.38;;;;;;;9.62;49.79;101404.22;4959573;28;20054;-76
2021/04/15 06:09:12;;;;;;;8.07;3.50;;;;;;;9.64;49.42;101401.22;4959130;28;20045;-76
2021/04/15 06:12:01;;;;;;;8.73;4.40;;;;;;;9.74;49.13;101401.91;4959586;28;20054;-75
2021/04/15 06:14:49;;;;;;;9.00;3.40;;;;;;;9.83;48.32;101399.31;4959433;28;20054;-76
2021/04/15 06:17:36;;;;;;;7.53;3.70;;;;;;;9.91;48.55;101398.66;4957696;28;20518;-78
2021/04/15 06:20:34;;;;;;;6.35;3.42;;;;;;;9.96;47.53;101395.06;4987819;23;20054;-80
2021/04/15 06:23:24;;;;;;;7.80;3.00;;;;;;;10.03;48.89;101399.03;4968686;28;20050;-81
2021/04/15 06:26:29;;;;;;;7.18;2.95;;;;;;;10.06;47.91;101403.06;4946953;29;20519;-80
2021/04/15 06:29:44;;;;;;;7.45;3.17;;;;;;;10.24;47.82;101408.53;4964857;28;20054;-80
2021/04/15 06:32:43;;;;;;;7.10;2.90;;;;;;;10.32;49.19;101411.66;4941061;29;20054;-80
2021/04/15 06:35:31;;;;;;;5.50;2.63;;;;;;;10.42;47.94;101406.88;4945075;29;20055;-81
2021/04/15 06:38:37;;;;;;;5.20;2.60;;;;;;;10.60;47.63;101407.94;4942744;29;20055;-80
2021/04/15 06:41:50;;;;;;;8.00;2.17;;;;;;;10.70;46.06;101413.19;4928655;29;20066;-80
2021/04/15 06:44:44;;;;;;;4.90;2.35;;;;;;;10.74;46.75;101414.22;4942457;29;20047;-80
2021/04/15 06:47:32;;;;;;;10.13;2.38;;;;;;;10.73;45.61;101415.31;4931764;29;20050;-80
2021/04/15 06:50:17;;;;;;;5.65;2.45;;;;;;;10.86;44.87;101419.19;4929638;29;20116;-80
2021/04/15 06:53:48;;;;;;;6.68;1.73;;;;;;;10.90;44.94;101412.84;4927859;29;20551;-81
2021/04/15 06:56:48;;;;;;;6.78;2.35;;;;;;;10.89;43.65;101422.09;4929849;29;20059;-81
2021/04/15 06:59:48;;;;;;;6.82;2.20;;;;;;;10.95;44.88;101409.22;4927522;29;20082;-81
2021/04/15 07:03:10;;;;;;;5.30;2.20;;;;;;;10.97;42.48;101418.69;4945126;29;20043;-81
2021/04/15 07:06:19;;;;;;;9.18;2.17;;;;;;;11.00;43.57;101425.44;4947980;29;20121;-82
2021/04/15 07:09:23;;;;;;;4.90;2.35;;;;;;;11.07;42.53;101418.47;4933726;29;20050;-81
2021/04/15 07:12:29;;;;;;;3.17;2.20;;;;;;;11.15;43.02;101428.69;4926821;29;20452;-81
2021/04/15 07:15:58;;;;;;;2.75;1.88;;;;;;;11.20;42.80;101437.88;4934310;29;20050;-80
2021/04/15 07:19:08;;;;;;;5.90;2.10;;;;;;;11.24;43.45;101427.97;4950224;29;20054;-79
2021/04/15 07:21:56;;;;;;;4.93;2.08;;;;;;;11.34;43.75;101427.78;4929673;29;20050;-79
2021/04/15 07:24:57;;;;;;;4.50;1.60;;;;;;;11.34;45.58;101423.16;4928336;29;20183;-78
2021/04/15 07:28:20;;;;;;;3.08;1.77;;;;;;;11.39;44.62;101435.84;4930957;29;20416;-80
2021/04/15 07:31:23;;;;;;;3.47;1.52;;;;;;;11.44;44.16;101441.19;4928964;29;20050;-79
2021/04/15 07:34:33;;;;;;;5.03;1.80;;;;;;;11.37;42.90;101438.09;4927934;29;20059;-79
2021/04/15 07:37:46;;;;;;;6.90;1.45;;;;;;;11.19;42.84;101434.34;4945870;29;20059;-79
2021/04/15 07:40:51;;;;;;;4.63;1.60;;;;;;;11.05;44.43;101453.38;4929103;29;20071;-80
2021/04/15 07:44:07;;;;;;;1.80;1.07;;;;;;;10.67;42.70;101449.13;4931068;29;20113;-79
2021/04/15 07:47:34;;;;;;;1.90;1.38;;;;;;;10.20;44.36;101447.47;4941882;29;20283;-80
2021/04/15 07:50:40;;;;;;;2.25;1.30;;;;;;;10.27;43.95;101456.84;4936231;29;20058;-79
2021/04/15 07:53:43;;;;;;;2.15;1.08;;;;;;;10.27;44.66;101456.84;4940830;29;20055;-79
2021/04/15 07:56:50;;;;;;;3.85;1.50;;;;;;;10.36;46.17;101456.19;4929748;29;20416;-80
2021/04/15 08:00:05;;;;;;;3.28;1.70;;;;;;;10.24;47.02;101446.56;4940553;29;20082;-79
2021/04/15 08:03:08;;;;;;;4.85;1.40;;;;;;;10.31;46.03;101448.13;4926070;29;20067;-78
2021/04/15 08:06:05;;;;;;;1.63;1.30;;;;;;;10.37;45.65;101455.88;4938976;29;20531;-78
2021/04/15 08:09:05;;;;;;;3.83;1.60;;;;;;;10.45;45.70;101454.41;4927969;29;20054;-78
2021/04/15 08:12:05;;;;;;;3.00;1.63;;;;;;;10.44;43.88;101452.78;4930896;29;20047;-79
2021/04/15 08:15:23;;;;;;;2.10;1.55;;;;;;;10.44;44.30;101463.66;4942547;29;20059;-79
2021/04/15 08:18:24;;;;;;;5.70;1.55;;;;;;;10.49;45.72;101450.81;4941000;29;20066;-80
2021/04/15 08:21:42;;;;;;;5.15;2.22;;;;;;;10.61;44.89;101456.59;4941923;29;20436;-80
2021/04/15 08:24:30;;;;;;;2.90;2.10;;;;;;;10.64;44.92;101464.16;4928348;29;20062;-81
2021/04/15 08:27:30;;;;;;;2.10;1.50;;;;;;;10.70;43.90;101464.88;4949196;29;20050;-81
2021/04/15 08:30:41;;;;;;;5.82;1.77;;;;;;;10.50;43.18;101457.88;4945354;29;20046;-80
2021/04/15 08:33:42;;;;;;;2.40;1.50;;;;;;;10.54;44.56;101472.47;4919620;29;20054;-82
2021/04/15 08:37:02;;;;;;;2.50;1.52;;;;;;;10.55;44.50;101474.09;4942206;29;20055;-80
2021/04/15 08:40:35;;;;;;;4.53;1.52;;;;;;;10.62;45.83;101482.69;4944721;29;20051;-81
2021/04/15 08:43:30;;;;;;;2.92;1.67;;;;;;;10.64;45.35;101485.09;4922681;29;20046;-81
2021/04/15 08:46:36;;;;;;;5.10;2.28;;;;;;;10.26;45.42;101493.28;4944057;29;20416;-81
2021/04/15 08:49:27;;;;;;;2.47;1.83;;;;;;;10.24;45.99;101487.34;4941031;29;20043;-81
2021/04/15 08:52:30;;;;;;;3.97;2.15;;;;;;;10.14;46.57;101486.66;4945139;29;20051;-80
2021/04/15 08:55:41;;;;;;;3.60;2.30;;;;;;;10.12;47.79;101499.72;4941852;29;20102;-80
2021/04/15 08:58:50;;;;;;;4.38;2.50;;;;;;;10.27;48.30;101491.38;4930614;29;20511;-81
2021/04/15 09:02:01;;;;;;;5.13;2.88;;;;;;;10.05;49.19;101493.84;4940427;29;20055;-80
2021/04/15 09:04:49;;;;;;;8.43;3.13;;;;;;;9.65;53.35;101487.81;4945260;29;20059;-80
2021/04/15 09:07:55;;;;;;;2.58;1.88;;;;;;;9.49;53.95;101510.81;4941993;29;20050;-80
2021/04/15 09:11:08;;;;;;;2.53;1.65;;;;;;;9.49;53.63;101512.72;4938895;29;20054;-80
2021/04/15 09:14:05;;;;;;;4.60;2.35;;;;;;;9.04;52.14;101512.06;4941447;29;20051;-80
2021/04/15 09:17:12;;;;;;;4.43;1.70;;;;;;;8.85;53.53;101514.69;4939836;29;20055;-79
2021/04/15 09:20:32;;;;;;;6.38;1.65;;;;;;;8.84;54.69;101531.22;4941101;29;20401;-79
2021/04/15 09:23:43;;;;;;;9.52;1.30;;;;;;;8.68;60.76;101533.28;4937788;29;20046;-80
2021/04/15 09:26:56;;;;;;;3.72;1.38;;;;;;;8.23;65.17;101539.72;4923730;29;20046;-79
2021/04/15 09:29:58;;;;;;;6.00;1.90;;;;;;;8.46;65.39;101530.97;4941021;29;20420;-79
2021/04/15 09:33:21;;;;;;;3.63;1.15;;;;;;;8.65;64.27;101522.16;4945056;29;20067;-80
2021/04/15 09:36:29;;;;;;;4.38;1.60;;;;;;;8.61;62.62;101534.66;4946088;29;20050;-80
2021/04/15 09:39:36;;;;;;;4.07;1.10;;;;;;;8.60;62.94;101528.44;4944346;29;20054;-79
2021/04/15 09:42:33;;;;;;;3.53;1.55;;;;;;;8.65;63.58;101517.53;4945566;29;20047;-79
2021/04/15 09:45:29;;;;;;;2.15;1.30;;;;;;;8.61;63.96;101513.78;4943028;29;20070;-79
2021/04/15 09:49:01;;;;;;;2.10;1.50;;;;;;;8.59;62.82;101514.06;4941586;29;20059;-78
2021/04/15 09:51:58;;;;;;;2.45;1.50;;;;;;;8.58;63.47;101514.38;4941481;29;20071;-79
2021/04/15 09:55:11;;;;;;;3.17;1.42;;;;;;;8.54;63.76;101514.09;4946294;29;20530;-79
2021/04/15 09:57:56;;;;;;;2.35;1.60;;;;;;;8.62;64.48;101518.13;4944375;29;20055;-81
2021/04/15 10:00:52;;;;;;;2.35;1.00;;;;;;;8.72;62.85;101517.25;4941158;29;20420;-80
2021/04/15 10:03:40;;;;;;;2.47;1.38;;;;;;;8.72;62.01;101522.66;4945792;29;20067;-80
2021/04/15 10:06:30;;;;;;;2.95;1.20;;;;;;;8.68;62.46;101506.16;4943161;29;20059;-80
2021/04/15 10:09:27;;;;;;;1.55;0.88;;;;;;;8.74;61.59;101509.59;4932754;29;20046;-80
2021/04/15 10:12:16;;;;;;;1.63;0.90;;;;;;;8.80;62.18;101517.44;4943474;29;20058;-80
2021/04/15 10:15:05;;;;;;;4.80;1.10;;;;;;;8.85;61.88;101508.44;4962368;28;20050;-80
2021/04/15 10:18:07;;;;;;;1.90;1.23;;;;;;;8.88;62.66;101513.31;4951373;28;20063;-80
2021/04/15 10:21:09;;;;;;;3.90;1.13;;;;;;;8.90;63.02;101516.53;4963637;28;20054;-80
2021/04/15 10:24:32;;;;;;;1.73;1.10;;;;;;;8.94;61.96;101517.56;4949451;28;20047;-81
2021/04/15 10:27:59;;;;;;;2.42;1.48;;;;;;;9.02;61.74;101511.56;4960501;28;20046;-81
2021/04/15 10:31:06;;;;;;;1.27;0.82;;;;;;;9.14;60.96;101503.84;4929346;28;20050;-81
2021/04/15 10:34:35;;;;;;;1.48;1.20;;;;;;;9.22;59.08;101499.69;4945973;29;20054;-81
2021/04/15 10:37:26;;;;;;;3.97;1.10;;;;;;;9.31;58.91;101493.34;4962290;28;20054;-80
2021/04/15 10:40:34;;;;;;;0.95;0.95;;;;;;;9.44;58.90;101495.41;4948337;29;20050;-79
2021/04/15 10:43:48;;;;;;;2.70;1.05;;;;;;;9.53;58.50;101486.63;4948164;28;20046;-80
2021/04/15 10:46:57;;;;;;;2.30;1.38;;;;;;;9.67;57.58;101479.38;4961226;28;20050;-80
2021/04/15 10:50:15;;;;;;;1.92;1.10;;;;;;;9.76;55.68;101475.72;4930609;29;20677;-80
2021/04/15 10:53:09;;;;;;;1.30;1.13;;;;;;;9.98;55.58;101466.22;4940516;29;20520;-80
2021/04/15 10:56:08;;;;;;;3.47;1.27;;;;;;;10.11;54.18;101466.28;4964073;28;20058;-81
2021/04/15 10:59:13;;;;;;;3.05;1.45;;;;;;;10.28;53.55;101458.47;4934062;29;20050;-80
2021/04/15 11:02:07;;;;;;;1.23;0.90;;;;;;;10.45;53.15;101457.13;4949776;28;20066;-81
2021/04/15 11:04:55;;;;;;;1.42;1.05;;;;;;;10.56;52.82;101451.25;4959679;28;20054;-79
2021/04/15 11:07:42;;;;;;;2.90;1.05;;;;;;;10.63;49.63;101453.56;4945980;28;20046;-80
2021/04/15 11:10:30;;;;;;;2.55;1.10;;;;;;;10.73;49.75;101451.50;4940722;28;20058;-80
2021/04/15 11:13:23;;;;;;;1.40;1.00;;;;;;;10.77;49.56;101435.38;4940864;28;20054;-80
2021/04/15 11:16:21;;;;;;;0.93;0.82;;;;;;;10.86;48.36;101441.75;4956397;28;20051;-80
2021/04/15 11:19:11;;;;;;;2.53;1.08;;;;;;;11.04;49.82;101443.59;4953594;28;20043;-80
2021/04/15 11:22:12;;;;;;;1.90;1.33;;;;;;;11.05;48.13;101430.78;4934698;29;20042;-91
2021/04/15 11:25:26;;;;;;;2.97;1.27;;;;;;;11.17;47.67;101425.69;4935188;29;20108;-88
2021/04/15 11:28:17;;;;;;;2.33;1.55;;;;;;;11.30;46.48;101422.13;4940940;29;20058;-88
2021/04/15 11:31:08;;;;;;;3.38;1.70;;;;;;;11.41;46.94;101417.31;4920640;29;20400;-87
2021/04/15 11:34:06;;;;;;;3.42;1.45;;;;;;;11.61;46.68;101405.19;4930953;29;20412;-86
2021/04/15 11:37:05;;;;;;;2.10;1.55;;;;;;;11.81;46.60;101421.13;4943347;28;20435;-88
2021/04/15 11:39:50;;;;;;;2.38;1.60;;;;;;;11.76;45.17;101402.97;4939893;28;20432;-87
2021/04/15 11:42:35;;;;;;;1.33;1.05;;;;;;;11.90;45.52;101403.72;4947554;28;20047;-87
2021/04/15 11:45:29;;;;;;;1.77;1.55;;;;;;;11.82;44.03;101404.47;4946395;28;20058;-87
2021/04/15 11:48:25;;;;;;;2.63;1.80;;;;;;;11.92;43.14;101400.72;4934420;28;20063;-87
2021/04/15 11:51:23;;;;;;;4.40;2.03;;;;;;;11.97;43.62;101404.13;4945142;29;20050;-87
2021/04/15 11:54:25;;;;;;;2.80;1.58;;;;;;;12.01;43.10;101396.13;4945557;28;20050;-86
2021/04/15 11:57:32;;;;;;;6.72;1.80;;;;;;;11.98;41.67;101394.03;4940292;29;20043;-87
2021/04/15 12:00:40;;;;;;;3.72;1.30;;;;;;;12.12;41.60;101394.78;4942124;29;20050;-87
2021/04/15 12:03:27;;;;;;;2.25;1.45;;;;;;;12.15;40.89;101388.69;4941594;29;20412;-87
2021/04/15 12:06:13;;;;;;;3.22;1.80;;;;;;;12.33;42.09;101385.00;4957512;28;20412;-85
2021/04/15 12:09:00;;;;;;;4.13;1.45;;;;;;;12.51;40.70;101385.91;4938923;29;20062;-86
2021/04/15 12:12:22;;;;;;;3.95;1.80;;;;;;;12.46;40.27;101380.56;4933671;29;20689;-86
2021/04/15 12:15:13;;;;;;;4.70;1.42;;;;;;;12.39;39.40;101377.50;4938656;29;20058;-86
2021/04/15 12:18:08;;;;;;;3.95;1.80;;;;;;;12.40;38.43;101384.53;4945449;29;20042;-87
2021/04/15 12:21:11;;;;;;;3.35;1.42;;;;;;;12.46;39.76;101375.13;4974896;23;20046;-82
2021/04/15 12:24:03;;;;;;;2.00;1.70;;;;;;;12.59;38.23;101387.91;4957929;28;20421;-83
2021/04/15 12:26:50;;;;;;;2.70;1.65;;;;;;;12.79;39.69;101381.09;4946178;28;20066;-83
2021/04/15 12:29:41;;;;;;;2.83;1.60;;;;;;;12.76;38.19;101381.72;4957393;28;20058;-83
2021/04/15 12:32:39;;;;;;;2.50;2.00;;;;;;;13.00;38.31;101376.72;4941475;29;20050;-83
2021/04/15 12:35:42;;;;;;;2.95;1.75;;;;;;;12.99;37.71;101382.47;4960524;28;20405;-83
2021/04/15 12:38:54;;;;;;;4.25;1.83;;;;;;;12.97;37.15;101379.25;4947937;28;20410;-80
2021/04/15 12:41:42;;;;;;;6.00;1.75;;;;;;;13.29;38.34;101373.47;4959108;28;20049;-82
2021/04/15 12:44:32;;;;;;;3.05;1.77;;;;;;;13.52;37.88;101366.75;4952095;28;20243;-82
2021/04/15 12:47:18;;;;;;;3.45;1.77;;;;;;;13.62;37.96;101374.66;4951741;28;20061;-83
2021/04/15 12:50:04;;;;;;;5.32;2.22;;;;;;;13.67;37.49;101370.94;4963703;28;20529;-83
2021/04/15 12:52:49;;;;;;;3.38;1.65;;;;;;;13.96;36.51;101370.34;4961825;28;20050;-82
2021/04/15 12:55:35;;;;;;;3.92;2.25;;;;;;;13.82;36.47;101375.13;4960111;28;20073;-81
2021/04/15 12:58:21;;;;;;;5.25;2.33;;;;;;;13.94;37.06;101372.59;4963830;28;20046;-83
2021/04/15 13:01:08;;;;;;;1.88;1.55;;;;;;;13.84;37.44;101372.91;4966080;28;20058;-83
2021/04/15 13:03:52;;;;;;;4.55;1.70;;;;;;;13.25;37.38;101364.28;4950033;28;20038;-83
2021/04/15 13:07:06;;;;;;;6.93;2.92;;;;;;;13.27;37.65;101362.03;4948446;28;20533;-81
2021/04/15 13:09:53;;;;;;;4.07;1.90;;;;;;;13.22;38.63;101357.53;4955553;28;20050;-82
2021/04/15 13:13:00;;;;;;;4.28;2.00;;;;;;;13.18;39.10;101358.47;4968314;28;20066;-83
2021/04/15 13:15:46;;;;;;;1.60;1.50;;;;;;;13.18;37.37;101353.00;4980052;28;20050;-83
2021/04/15 13:18:36;;;;;;;1.80;1.70;;;;;;;12.95;38.26;101351.47;4949855;28;20058;-82
2021/04/15 13:21:25;;;;;;;3.45;1.92;;;;;;;13.00;38.37;101359.53;4950143;28;20051;-83
2021/04/15 13:24:41;;;;;;;2.90;2.05;;;;;;;12.79;39.51;101349.16;4945646;29;20051;-83
2021/04/15 13:27:32;;;;;;;3.15;2.28;;;;;;;12.64;43.05;101354.22;4927962;29;20106;-82
2021/04/15 13:30:20;;;;;;;4.28;2.95;;;;;;;12.36;43.96;101348.91;4964526;28;20193;-83
2021/04/15 13:33:14;;;;;;;7.10;2.97;;;;;;;12.52;44.88;101357.50;4963045;28;20393;-82
2021/04/15 13:35:59;;;;;;;3.53;2.20;;;;;;;12.57;44.63;101353.84;4959611;28;20050;-83
2021/04/15 13:38:53;;;;;;;9.85;3.45;;;;;;;12.48;43.91;101353.00;4955858;28;20051;-83
2021/04/15 13:41:54;;;;;;;4.25;2.20;;;;;;;12.38;42.87;101343.97;4953604;28;20057;-83
2021/04/15 13:44:48;;;;;;;6.38;2.65;;;;;;;12.20;43.46;101344.94;4955552;28;20061;-83
2021/04/15 13:47:45;;;;;;;3.53;2.30;;;;;;;12.27;43.32;101342.59;4969110;28;20430;-83
2021/04/15 13:51:04;;;;;;;4.65;2.03;;;;;;;12.34;41.26;101342.19;4957485;28;20046;-83